sensor_id;sensor_type;location;lat;lon;timestamp;pressure;altitude;pressure_sealevel;temperature;humidity
10176;BME280;18221;38.704;0.152;2022-10-16T00:09:25;98844.47;;;25.02;52.41
10176;BME280;18221;38.704;0.152;2022-10-16T00:11:53;98845.19;;;24.97;52.62
10176;BME280;18221;38.704;0.152;2022-10-16T00:14:20;98852.50;;;24.97;52.55
10176;BME280;18221;38.704;0.152;2022-10-16T00:16:48;98841.28;;;24.93;52.70
10176;BME280;18221;38.704;0.152;2022-10-16T00:19:16;98836.19;;;24.85;52.87
10176;BME280;18221;38.704;0.152;2022-10-16T00:21:44;98852.00;;;24.77;53.25
10176;BME280;18221;38.704;0.152;2022-10-16T00:24:12;98841.59;;;24.74;53.18
10176;BME280;18221;38.704;0.152;2022-10-16T00:26:41;98850.31;;;24.76;53.34
10176;BME280;18221;38.704;0.152;2022-10-16T00:29:09;98844.47;;;24.79;53.12
10176;BME280;18221;38.704;0.152;2022-10-16T00:31:37;98844.22;;;24.80;52.75
10176;BME280;18221;38.704;0.152;2022-10-16T00:34:05;98843.00;;;24.76;52.94
10176;BME280;18221;38.704;0.152;2022-10-16T00:36:33;98839.69;;;24.74;53.10
10176;BME280;18221;38.704;0.152;2022-10-16T00:39:01;98843.69;;;24.72;52.86
10176;BME280;18221;38.704;0.152;2022-10-16T00:41:30;98846.06;;;24.68;52.99
10176;BME280;18221;38.704;0.152;2022-10-16T00:44:01;98843.69;;;24.72;53.14
10176;BME280;18221;38.704;0.152;2022-10-16T00:46:36;98842.19;;;24.76;52.74
10176;BME280;18221;38.704;0.152;2022-10-16T00:49:08;98845.47;;;24.66;52.89
10176;BME280;18221;38.704;0.152;2022-10-16T00:51:39;98840.25;;;24.65;53.02
10176;BME280;18221;38.704;0.152;2022-10-16T00:54:14;98835.91;;;24.64;52.95
10176;BME280;18221;38.704;0.152;2022-10-16T00:56:44;98830.13;;;24.60;52.53
10176;BME280;18221;38.704;0.152;2022-10-16T00:59:20;98838.25;;;24.60;52.43
10176;BME280;18221;38.704;0.152;2022-10-16T01:01:51;98841.94;;;24.66;51.67
10176;BME280;18221;38.704;0.152;2022-10-16T01:04:20;98832.84;;;24.60;51.95
10176;BME280;18221;38.704;0.152;2022-10-16T01:06:59;98840.72;;;24.62;51.48
10176;BME280;18221;38.704;0.152;2022-10-16T01:09:39;98840.06;;;24.66;51.11
10176;BME280;18221;38.704;0.152;2022-10-16T01:12:15;98841.34;;;24.64;51.11
10176;BME280;18221;38.704;0.152;2022-10-16T01:14:53;98842.97;;;24.65;51.35
10176;BME280;18221;38.704;0.152;2022-10-16T01:17:29;98843.81;;;24.65;51.50
10176;BME280;18221;38.704;0.152;2022-10-16T01:20:10;98839.31;;;24.59;51.56
10176;BME280;18221;38.704;0.152;2022-10-16T01:26:12;98834.50;;;24.61;51.99
10176;BME280;18221;38.704;0.152;2022-10-16T01:28:51;98833.03;;;24.58;51.65
10176;BME280;18221;38.704;0.152;2022-10-16T01:31:26;98841.44;;;24.57;51.84
10176;BME280;18221;38.704;0.152;2022-10-16T01:34:03;98844.19;;;24.69;51.12
10176;BME280;18221;38.704;0.152;2022-10-16T01:36:40;98834.59;;;24.54;51.22
10176;BME280;18221;38.704;0.152;2022-10-16T01:39:11;98831.88;;;24.54;51.42
10176;BME280;18221;38.704;0.152;2022-10-16T01:41:44;98838.13;;;24.55;51.22
10176;BME280;18221;38.704;0.152;2022-10-16T01:44:20;98828.44;;;24.47;51.00
10176;BME280;18221;38.704;0.152;2022-10-16T01:46:52;98839.06;;;24.49;50.96
10176;BME280;18221;38.704;0.152;2022-10-16T01:49:23;98831.75;;;24.49;50.82
10176;BME280;18221;38.704;0.152;2022-10-16T01:51:58;98837.41;;;24.48;50.71
10176;BME280;18221;38.704;0.152;2022-10-16T01:54:31;98833.50;;;24.44;50.76
10176;BME280;18221;38.704;0.152;2022-10-16T01:57:01;98830.19;;;24.42;50.50
10176;BME280;18221;38.704;0.152;2022-10-16T01:59:38;98831.03;;;24.42;50.14
10176;BME280;18221;38.704;0.152;2022-10-16T02:02:11;98837.38;;;24.36;50.53
10176;BME280;18221;38.704;0.152;2022-10-16T02:04:45;98836.09;;;24.39;50.12
10176;BME280;18221;38.704;0.152;2022-10-16T02:07:14;98833.13;;;24.29;50.51
10176;BME280;18221;38.704;0.152;2022-10-16T02:09:42;98832.53;;;24.38;50.25
10176;BME280;18221;38.704;0.152;2022-10-16T02:12:16;98830.16;;;24.30;50.46
10176;BME280;18221;38.704;0.152;2022-10-16T02:14:48;98820.13;;;24.31;50.47
10176;BME280;18221;38.704;0.152;2022-10-16T02:17:17;98823.09;;;24.29;49.81
10176;BME280;18221;38.704;0.152;2022-10-16T02:19:48;98821.22;;;24.30;49.56
10176;BME280;18221;38.704;0.152;2022-10-16T02:22:24;98827.31;;;24.25;49.52
10176;BME280;18221;38.704;0.152;2022-10-16T02:24:58;98819.41;;;24.24;49.77
10176;BME280;18221;38.704;0.152;2022-10-16T02:27:33;98820.25;;;24.36;49.52
10176;BME280;18221;38.704;0.152;2022-10-16T02:30:10;98820.38;;;24.41;49.37
10176;BME280;18221;38.704;0.152;2022-10-16T02:32:45;98821.09;;;24.36;49.99
10176;BME280;18221;38.704;0.152;2022-10-16T02:35:17;98823.94;;;24.30;50.28
10176;BME280;18221;38.704;0.152;2022-10-16T02:37:48;98822.84;;;24.31;50.00
10176;BME280;18221;38.704;0.152;2022-10-16T02:40:18;98822.97;;;24.24;50.11
10176;BME280;18221;38.704;0.152;2022-10-16T02:42:52;98827.19;;;24.20;50.13
10176;BME280;18221;38.704;0.152;2022-10-16T02:45:23;98822.59;;;24.21;50.62
10176;BME280;18221;38.704;0.152;2022-10-16T02:47:51;98827.44;;;24.30;50.15
10176;BME280;18221;38.704;0.152;2022-10-16T02:50:19;98821.66;;;24.27;49.59
10176;BME280;18221;38.704;0.152;2022-10-16T02:52:46;98822.25;;;24.29;49.70
10176;BME280;18221;38.704;0.152;2022-10-16T02:55:14;98825.19;;;24.27;49.41
10176;BME280;18221;38.704;0.152;2022-10-16T02:57:42;98820.00;;;24.26;48.96
10176;BME280;18221;38.704;0.152;2022-10-16T03:00:14;98821.28;;;24.23;48.75
10176;BME280;18221;38.704;0.152;2022-10-16T03:02:44;98824.13;;;24.28;48.68
10176;BME280;18221;38.704;0.152;2022-10-16T03:05:13;98822.84;;;24.19;48.56
10176;BME280;18221;38.704;0.152;2022-10-16T03:07:41;98831.44;;;24.16;48.37
10176;BME280;18221;38.704;0.152;2022-10-16T03:10:09;98828.34;;;24.13;47.89
10176;BME280;18221;38.704;0.152;2022-10-16T03:12:37;98829.72;;;24.04;48.13
10176;BME280;18221;38.704;0.152;2022-10-16T03:15:05;98831.13;;;24.06;47.59
10176;BME280;18221;38.704;0.152;2022-10-16T03:17:34;98833.00;;;24.06;47.36
10176;BME280;18221;38.704;0.152;2022-10-16T03:20:04;98835.34;;;24.02;47.04
10176;BME280;18221;38.704;0.152;2022-10-16T03:22:32;98844.31;;;24.03;46.87
10176;BME280;18221;38.704;0.152;2022-10-16T03:25:00;98829.19;;;23.95;45.89
10176;BME280;18221;38.704;0.152;2022-10-16T03:27:28;98833.91;;;24.00;45.51
10176;BME280;18221;38.704;0.152;2022-10-16T03:29:56;98835.22;;;23.97;44.83
10176;BME280;18221;38.704;0.152;2022-10-16T03:32:23;98832.88;;;24.01;44.59
10176;BME280;18221;38.704;0.152;2022-10-16T03:34:52;98838.44;;;24.06;44.18
10176;BME280;18221;38.704;0.152;2022-10-16T03:37:22;98834.06;;;24.05;43.87
10176;BME280;18221;38.704;0.152;2022-10-16T03:39:49;98838.97;;;23.96;44.06
10176;BME280;18221;38.704;0.152;2022-10-16T03:42:17;98841.69;;;23.96;44.29
10176;BME280;18221;38.704;0.152;2022-10-16T03:44:45;98846.44;;;24.01;43.78
10176;BME280;18221;38.704;0.152;2022-10-16T03:47:13;98850.66;;;23.96;43.56
10176;BME280;18221;38.704;0.152;2022-10-16T03:49:41;98849.00;;;23.95;42.85
10176;BME280;18221;38.704;0.152;2022-10-16T03:52:09;98846.59;;;23.87;42.40
10176;BME280;18221;38.704;0.152;2022-10-16T03:54:38;98850.16;;;23.88;42.21
10176;BME280;18221;38.704;0.152;2022-10-16T03:57:06;98857.94;;;23.96;41.65
10176;BME280;18221;38.704;0.152;2022-10-16T03:59:34;98860.66;;;23.96;41.50
10176;BME280;18221;38.704;0.152;2022-10-16T04:02:01;98861.16;;;23.93;41.35
10176;BME280;18221;38.704;0.152;2022-10-16T04:04:29;98868.59;;;23.98;40.95
10176;BME280;18221;38.704;0.152;2022-10-16T04:06:57;98866.00;;;24.03;40.96
10176;BME280;18221;38.704;0.152;2022-10-16T04:09:25;98865.03;;;23.97;40.76
10176;BME280;18221;38.704;0.152;2022-10-16T04:11:54;98862.31;;;23.97;41.35
10176;BME280;18221;38.704;0.152;2022-10-16T04:14:22;98866.19;;;23.89;41.41
10176;BME280;18221;38.704;0.152;2022-10-16T04:16:50;98865.00;;;23.85;41.30
10176;BME280;18221;38.704;0.152;2022-10-16T04:19:18;98858.28;;;23.88;41.19
10176;BME280;18221;38.704;0.152;2022-10-16T04:21:46;98858.28;;;23.88;41.05
10176;BME280;18221;38.704;0.152;2022-10-16T04:24:14;98859.88;;;23.77;40.59
10176;BME280;18221;38.704;0.152;2022-10-16T04:26:41;98859.41;;;23.80;40.67
10176;BME280;18221;38.704;0.152;2022-10-16T04:29:11;98856.78;;;23.74;39.93
10176;BME280;18221;38.704;0.152;2022-10-16T04:31:39;98853.03;;;23.75;39.58
10176;BME280;18221;38.704;0.152;2022-10-16T04:34:06;98850.31;;;23.75;39.26
10176;BME280;18221;38.704;0.152;2022-10-16T04:36:34;98860.78;;;23.71;38.92
10176;BME280;18221;38.704;0.152;2022-10-16T04:39:02;98857.19;;;23.77;38.68
10176;BME280;18221;38.704;0.152;2022-10-16T04:41:30;98862.50;;;23.84;37.89
10176;BME280;18221;38.704;0.152;2022-10-16T04:43:58;98851.28;;;23.80;37.91
10176;BME280;18221;38.704;0.152;2022-10-16T04:46:27;98852.09;;;23.81;37.59
10176;BME280;18221;38.704;0.152;2022-10-16T04:48:55;98857.25;;;23.71;36.84
10176;BME280;18221;38.704;0.152;2022-10-16T04:51:23;98859.81;;;23.66;36.29
10176;BME280;18221;38.704;0.152;2022-10-16T04:53:51;98862.94;;;23.81;36.07
10176;BME280;18221;38.704;0.152;2022-10-16T04:56:19;98861.34;;;23.91;35.89
10176;BME280;18221;38.704;0.152;2022-10-16T04:58:47;98864.44;;;23.95;35.31
10176;BME280;18221;38.704;0.152;2022-10-16T05:01:15;98870.47;;;23.97;36.46
10176;BME280;18221;38.704;0.152;2022-10-16T05:03:44;98870.47;;;23.97;35.58
10176;BME280;18221;38.704;0.152;2022-10-16T05:06:12;98870.19;;;23.87;36.06
10176;BME280;18221;38.704;0.152;2022-10-16T05:08:40;98867.19;;;23.77;36.11
10176;BME280;18221;38.704;0.152;2022-10-16T05:11:08;98859.88;;;23.77;36.33
10176;BME280;18221;38.704;0.152;2022-10-16T05:13:36;98853.00;;;23.93;35.57
10176;BME280;18221;38.704;0.152;2022-10-16T05:16:04;98852.38;;;23.91;34.89
10176;BME280;18221;38.704;0.152;2022-10-16T05:18:32;98855.94;;;24.10;34.48
10176;BME280;18221;38.704;0.152;2022-10-16T05:21:02;98857.00;;;24.09;33.16
10176;BME280;18221;38.704;0.152;2022-10-16T05:23:30;98853.47;;;24.20;31.78
10176;BME280;18221;38.704;0.152;2022-10-16T05:25:59;98852.06;;;24.17;32.30
10176;BME280;18221;38.704;0.152;2022-10-16T05:28:28;98851.72;;;24.25;31.61
10176;BME280;18221;38.704;0.152;2022-10-16T05:30:56;98854.44;;;24.25;30.78
10176;BME280;18221;38.704;0.152;2022-10-16T05:33:26;98847.53;;;24.29;30.67
10176;BME280;18221;38.704;0.152;2022-10-16T05:35:53;98853.53;;;24.31;30.39
10176;BME280;18221;38.704;0.152;2022-10-16T05:38:23;98853.78;;;24.30;30.36
10176;BME280;18221;38.704;0.152;2022-10-16T05:40:54;98858.50;;;24.46;30.67
10176;BME280;18221;38.704;0.152;2022-10-16T05:43:22;98858.75;;;24.44;30.76
10176;BME280;18221;38.704;0.152;2022-10-16T05:45:58;98862.06;;;24.46;31.52
10176;BME280;18221;38.704;0.152;2022-10-16T05:48:26;98857.47;;;24.47;32.34
10176;BME280;18221;38.704;0.152;2022-10-16T05:50:59;98859.53;;;24.33;32.04
10176;BME280;18221;38.704;0.152;2022-10-16T05:53:31;98862.44;;;24.09;32.11
10176;BME280;18221;38.704;0.152;2022-10-16T05:55:59;98867.50;;;23.98;32.43
10176;BME280;18221;38.704;0.152;2022-10-16T05:58:30;98877.09;;;24.01;32.48
10176;BME280;18221;38.704;0.152;2022-10-16T06:01:02;98873.75;;;24.17;32.15
10176;BME280;18221;38.704;0.152;2022-10-16T06:03:30;98867.44;;;24.23;31.93
10176;BME280;18221;38.704;0.152;2022-10-16T06:05:58;98870.84;;;24.30;32.01
10176;BME280;18221;38.704;0.152;2022-10-16T06:08:27;98871.25;;;24.34;32.20
10176;BME280;18221;38.704;0.152;2022-10-16T06:11:03;98877.63;;;24.39;32.36
10176;BME280;18221;38.704;0.152;2022-10-16T06:13:31;98881.84;;;24.35;32.71
10176;BME280;18221;38.704;0.152;2022-10-16T06:16:00;98882.03;;;24.52;32.30
10176;BME280;18221;38.704;0.152;2022-10-16T06:18:28;98891.03;;;24.64;32.17
10176;BME280;18221;38.704;0.152;2022-10-16T06:20:57;98900.47;;;24.62;32.50
10176;BME280;18221;38.704;0.152;2022-10-16T06:23:25;98900.53;;;24.43;33.15
10176;BME280;18221;38.704;0.152;2022-10-16T06:26:05;98911.50;;;24.37;34.78
10176;BME280;18221;38.704;0.152;2022-10-16T06:28:33;98906.25;;;24.24;35.75
10176;BME280;18221;38.704;0.152;2022-10-16T06:31:02;98913.88;;;24.15;37.20
10176;BME280;18221;38.704;0.152;2022-10-16T06:33:30;98906.84;;;24.08;37.50
10176;BME280;18221;38.704;0.152;2022-10-16T06:36:02;98902.88;;;23.92;37.23
10176;BME280;18221;38.704;0.152;2022-10-16T06:38:30;98901.16;;;23.79;38.19
10176;BME280;18221;38.704;0.152;2022-10-16T06:41:01;98886.75;;;23.79;37.07
10176;BME280;18221;38.704;0.152;2022-10-16T06:43:30;98895.59;;;24.04;35.89
10176;BME280;18221;38.704;0.152;2022-10-16T06:46:00;98897.13;;;24.18;34.09
10176;BME280;18221;38.704;0.152;2022-10-16T06:48:29;98897.66;;;24.27;33.32
10176;BME280;18221;38.704;0.152;2022-10-16T06:50:58;98902.41;;;24.43;33.05
10176;BME280;18221;38.704;0.152;2022-10-16T06:53:29;98903.09;;;24.38;33.64
10176;BME280;18221;38.704;0.152;2022-10-16T06:56:05;98909.47;;;24.32;34.35
10176;BME280;18221;38.704;0.152;2022-10-16T06:58:34;98912.50;;;24.24;34.41
10176;BME280;18221;38.704;0.152;2022-10-16T07:01:02;98907.28;;;24.23;34.67
10176;BME280;18221;38.704;0.152;2022-10-16T07:03:30;98917.88;;;24.42;34.82
10176;BME280;18221;38.704;0.152;2022-10-16T07:06:01;98930.44;;;24.55;34.81
10176;BME280;18221;38.704;0.152;2022-10-16T07:08:31;98926.81;;;24.61;34.49
10176;BME280;18221;38.704;0.152;2022-10-16T07:11:03;98936.50;;;24.69;34.67
10176;BME280;18221;38.704;0.152;2022-10-16T07:13:33;98943.44;;;24.65;35.23
10176;BME280;18221;38.704;0.152;2022-10-16T07:16:05;98948.75;;;24.60;35.78
10176;BME280;18221;38.704;0.152;2022-10-16T07:18:33;98949.44;;;24.55;37.15
10176;BME280;18221;38.704;0.152;2022-10-16T07:21:05;98952.28;;;24.60;37.09
10176;BME280;18221;38.704;0.152;2022-10-16T07:23:34;98953.25;;;24.66;37.93
10176;BME280;18221;38.704;0.152;2022-10-16T07:26:04;98953.47;;;24.64;38.93
10176;BME280;18221;38.704;0.152;2022-10-16T07:28:34;98952.22;;;24.48;39.24
10176;BME280;18221;38.704;0.152;2022-10-16T07:31:02;98956.84;;;24.48;39.54
10176;BME280;18221;38.704;0.152;2022-10-16T07:33:32;98956.84;;;24.48;39.72
10176;BME280;18221;38.704;0.152;2022-10-16T07:36:00;98962.38;;;24.41;40.79
10176;BME280;18221;38.704;0.152;2022-10-16T07:38:28;98961.63;;;24.34;40.72
10176;BME280;18221;38.704;0.152;2022-10-16T07:40:57;98962.81;;;24.38;40.87
10176;BME280;18221;38.704;0.152;2022-10-16T07:43:27;98969.00;;;24.45;41.31
10176;BME280;18221;38.704;0.152;2022-10-16T07:45:56;98970.31;;;24.54;40.89
10176;BME280;18221;38.704;0.152;2022-10-16T07:48:27;98976.28;;;24.63;41.46
10176;BME280;18221;38.704;0.152;2022-10-16T07:50:58;98983.56;;;24.81;41.02
10176;BME280;18221;38.704;0.152;2022-10-16T07:53:27;98991.75;;;24.92;40.71
10176;BME280;18221;38.704;0.152;2022-10-16T07:55:59;99000.28;;;25.07;40.73
10176;BME280;18221;38.704;0.152;2022-10-16T07:58:29;99006.19;;;25.16;40.76
10176;BME280;18221;38.704;0.152;2022-10-16T08:00:58;99009.28;;;25.20;40.72
10176;BME280;18221;38.704;0.152;2022-10-16T08:03:26;99007.53;;;25.25;41.01
10176;BME280;18221;38.704;0.152;2022-10-16T08:05:56;99006.25;;;25.39;40.66
10176;BME280;18221;38.704;0.152;2022-10-16T08:08:25;99001.75;;;25.45;40.75
10176;BME280;18221;38.704;0.152;2022-10-16T08:10:54;99010.31;;;25.48;40.93
10176;BME280;18221;38.704;0.152;2022-10-16T08:13:22;99010.78;;;25.57;40.82
10176;BME280;18221;38.704;0.152;2022-10-16T08:15:53;99012.56;;;25.51;41.49
10176;BME280;18221;38.704;0.152;2022-10-16T08:18:21;99017.13;;;25.39;42.17
10176;BME280;18221;38.704;0.152;2022-10-16T08:20:56;99016.50;;;25.37;42.72
10176;BME280;18221;38.704;0.152;2022-10-16T08:23:25;99019.94;;;25.21;43.71
10176;BME280;18221;38.704;0.152;2022-10-16T08:25:53;99024.19;;;25.29;44.17
10176;BME280;18221;38.704;0.152;2022-10-16T08:28:22;99025.69;;;25.54;43.49
10176;BME280;18221;38.704;0.152;2022-10-16T08:30:52;99021.75;;;25.73;42.78
10176;BME280;18221;38.704;0.152;2022-10-16T08:33:20;99026.16;;;25.74;40.08
10176;BME280;18221;38.704;0.152;2022-10-16T08:35:52;99035.25;;;25.80;36.37
10176;BME280;18221;38.704;0.152;2022-10-16T08:38:21;99044.97;;;25.88;35.91
10176;BME280;18221;38.704;0.152;2022-10-16T08:40:49;99057.63;;;25.94;35.28
10176;BME280;18221;38.704;0.152;2022-10-16T08:46:42;99066.13;;;25.97;40.80
10176;BME280;18221;38.704;0.152;2022-10-16T08:49:14;99069.56;;;25.93;42.49
10176;BME280;18221;38.704;0.152;2022-10-16T08:51:43;99073.94;;;25.94;42.80
10176;BME280;18221;38.704;0.152;2022-10-16T08:54:28;99079.72;;;25.97;43.10
10176;BME280;18221;38.704;0.152;2022-10-16T08:57:07;99076.06;;;25.92;43.64
10176;BME280;18221;38.704;0.152;2022-10-16T08:59:36;99090.03;;;25.95;43.23
10176;BME280;18221;38.704;0.152;2022-10-16T09:02:26;99096.41;;;26.01;43.68
10176;BME280;18221;38.704;0.152;2022-10-16T09:05:23;99092.97;;;26.05;43.29
10176;BME280;18221;38.704;0.152;2022-10-16T09:08:07;99095.94;;;26.04;42.92
10176;BME280;18221;38.704;0.152;2022-10-16T09:10:49;99101.03;;;26.12;42.47
10176;BME280;18221;38.704;0.152;2022-10-16T09:13:28;99102.00;;;26.29;42.16
10176;BME280;18221;38.704;0.152;2022-10-16T09:16:14;99095.50;;;26.18;41.47
10176;BME280;18221;38.704;0.152;2022-10-16T09:18:55;99106.03;;;26.15;41.86
10176;BME280;18221;38.704;0.152;2022-10-16T09:21:29;99102.50;;;26.14;42.10
10176;BME280;18221;38.704;0.152;2022-10-16T09:24:04;99100.22;;;26.23;42.37
10176;BME280;18221;38.704;0.152;2022-10-16T09:26:35;99109.09;;;26.30;42.55
10176;BME280;18221;38.704;0.152;2022-10-16T09:29:04;99112.88;;;26.29;42.87
10176;BME280;18221;38.704;0.152;2022-10-16T09:31:32;99104.13;;;26.27;43.17
10176;BME280;18221;38.704;0.152;2022-10-16T09:34:08;99103.75;;;26.35;42.50
10176;BME280;18221;38.704;0.152;2022-10-16T09:36:43;99108.25;;;26.41;41.85
10176;BME280;18221;38.704;0.152;2022-10-16T09:39:12;99116.28;;;26.48;41.44
10176;BME280;18221;38.704;0.152;2022-10-16T09:41:44;99110.13;;;26.52;41.68
10176;BME280;18221;38.704;0.152;2022-10-16T09:44:23;99112.38;;;26.55;42.07
10176;BME280;18221;38.704;0.152;2022-10-16T09:47:02;99106.06;;;26.66;42.57
10176;BME280;18221;38.704;0.152;2022-10-16T09:49:32;99103.09;;;26.68;42.50
10176;BME280;18221;38.704;0.152;2022-10-16T09:52:12;99102.63;;;26.82;42.57
10176;BME280;18221;38.704;0.152;2022-10-16T09:54:50;99103.56;;;26.88;41.56
10176;BME280;18221;38.704;0.152;2022-10-16T09:57:20;99101.44;;;26.78;41.53
10176;BME280;18221;38.704;0.152;2022-10-16T09:59:52;99101.53;;;26.83;41.70
10176;BME280;18221;38.704;0.152;2022-10-16T10:02:28;99103.41;;;26.94;42.06
10176;BME280;18221;38.704;0.152;2022-10-16T10:04:58;99110.91;;;26.87;41.81
10176;BME280;18221;38.704;0.152;2022-10-16T10:07:30;99111.09;;;26.98;41.14
10176;BME280;18221;38.704;0.152;2022-10-16T10:10:02;99105.56;;;26.92;39.64
10176;BME280;18221;38.704;0.152;2022-10-16T10:12:33;99106.72;;;26.96;39.63
10176;BME280;18221;38.704;0.152;2022-10-16T10:15:07;99101.03;;;26.98;39.16
10176;BME280;18221;38.704;0.152;2022-10-16T10:17:47;99097.47;;;26.98;39.32
10176;BME280;18221;38.704;0.152;2022-10-16T10:20:28;99104.44;;;27.05;39.10
10176;BME280;18221;38.704;0.152;2022-10-16T10:22:58;99109.53;;;27.02;39.13
10176;BME280;18221;38.704;0.152;2022-10-16T10:25:48;99099.53;;;26.90;37.15
10176;BME280;18221;38.704;0.152;2022-10-16T10:28:43;99106.31;;;27.05;40.15
10176;BME280;18221;38.704;0.152;2022-10-16T10:31:21;99101.16;;;27.20;39.12
10176;BME280;18221;38.704;0.152;2022-10-16T10:34:01;99108.38;;;27.26;37.25
10176;BME280;18221;38.704;0.152;2022-10-16T10:36:39;99101.69;;;27.33;37.60
10176;BME280;18221;38.704;0.152;2022-10-16T10:39:13;99095.88;;;27.41;37.41
10176;BME280;18221;38.704;0.152;2022-10-16T10:42:15;99103.22;;;27.41;34.76
10176;BME280;18221;38.704;0.152;2022-10-16T10:45:22;99102.88;;;27.37;31.99
10176;BME280;18221;38.704;0.152;2022-10-16T10:48:19;99104.19;;;27.35;28.21
10176;BME280;18221;38.704;0.152;2022-10-16T10:50:54;99102.16;;;27.42;29.86
10176;BME280;18221;38.704;0.152;2022-10-16T10:53:42;99105.09;;;27.40;25.62
10176;BME280;18221;38.704;0.152;2022-10-16T10:56:40;99109.44;;;27.53;26.93
10176;BME280;18221;38.704;0.152;2022-10-16T11:02:38;99100.66;;;27.51;29.44
10176;BME280;18221;38.704;0.152;2022-10-16T11:05:39;99098.69;;;27.63;28.51
10176;BME280;18221;38.704;0.152;2022-10-16T11:08:17;99104.47;;;27.67;30.00
10176;BME280;18221;38.704;0.152;2022-10-16T11:10:57;99098.94;;;27.62;32.00
10176;BME280;18221;38.704;0.152;2022-10-16T11:13:35;99098.38;;;27.76;33.39
10176;BME280;18221;38.704;0.152;2022-10-16T11:16:15;99094.22;;;27.90;32.43
10176;BME280;18221;38.704;0.152;2022-10-16T11:18:52;99094.06;;;27.97;32.34
10176;BME280;18221;38.704;0.152;2022-10-16T11:21:24;99094.28;;;27.95;30.21
10176;BME280;18221;38.704;0.152;2022-10-16T11:23:59;99100.03;;;28.10;33.37
10176;BME280;18221;38.704;0.152;2022-10-16T11:26:34;99090.16;;;28.26;33.92
10176;BME280;18221;38.704;0.152;2022-10-16T11:29:05;99090.59;;;28.40;33.45
10176;BME280;18221;38.704;0.152;2022-10-16T11:31:45;99084.06;;;28.41;32.75
10176;BME280;18221;38.704;0.152;2022-10-16T11:34:22;99079.81;;;28.50;33.93
10176;BME280;18221;38.704;0.152;2022-10-16T11:37:01;99078.28;;;28.37;33.44
10176;BME280;18221;38.704;0.152;2022-10-16T11:39:31;99069.66;;;28.45;33.32
10176;BME280;18221;38.704;0.152;2022-10-16T11:42:08;99071.31;;;28.68;33.84
10176;BME280;18221;38.704;0.152;2022-10-16T11:44:50;99075.28;;;28.77;33.50
10176;BME280;18221;38.704;0.152;2022-10-16T11:47:33;99070.88;;;28.76;34.50
10176;BME280;18221;38.704;0.152;2022-10-16T11:50:17;99072.59;;;28.82;35.74
10176;BME280;18221;38.704;0.152;2022-10-16T11:52:57;99058.94;;;28.82;34.33
10176;BME280;18221;38.704;0.152;2022-10-16T11:55:34;99065.66;;;28.96;33.39
10176;BME280;18221;38.704;0.152;2022-10-16T11:58:15;99048.72;;;28.99;32.29
10176;BME280;18221;38.704;0.152;2022-10-16T12:00:57;99047.69;;;29.05;31.51
10176;BME280;18221;38.704;0.152;2022-10-16T12:03:35;99049.91;;;29.08;30.79
10176;BME280;18221;38.704;0.152;2022-10-16T12:06:22;99046.88;;;29.05;32.35
10176;BME280;18221;38.704;0.152;2022-10-16T12:08:54;99043.38;;;29.09;32.12
10176;BME280;18221;38.704;0.152;2022-10-16T12:11:37;99042.22;;;29.05;28.00
10176;BME280;18221;38.704;0.152;2022-10-16T12:14:38;99042.09;;;29.17;29.87
10176;BME280;18221;38.704;0.152;2022-10-16T12:17:24;99036.28;;;29.13;28.75
10176;BME280;18221;38.704;0.152;2022-10-16T12:20:01;99041.19;;;29.11;30.01
10176;BME280;18221;38.704;0.152;2022-10-16T12:22:31;99030.25;;;29.11;29.18
10176;BME280;18221;38.704;0.152;2022-10-16T12:24:59;99033.88;;;29.17;27.45
10176;BME280;18221;38.704;0.152;2022-10-16T12:27:30;99029.47;;;29.16;28.14
10176;BME280;18221;38.704;0.152;2022-10-16T12:30:04;99030.88;;;29.18;27.87
10176;BME280;18221;38.704;0.152;2022-10-16T12:32:37;99022.31;;;29.10;26.27
10176;BME280;18221;38.704;0.152;2022-10-16T12:35:18;99022.00;;;29.06;26.64
10176;BME280;18221;38.704;0.152;2022-10-16T12:37:49;99022.31;;;29.10;25.76
10176;BME280;18221;38.704;0.152;2022-10-16T12:40:27;99024.28;;;29.14;26.43
10176;BME280;18221;38.704;0.152;2022-10-16T12:42:56;99026.03;;;29.25;26.58
10176;BME280;18221;38.704;0.152;2022-10-16T12:45:30;99023.97;;;29.38;27.92
10176;BME280;18221;38.704;0.152;2022-10-16T12:48:00;99027.53;;;29.38;29.27
10176;BME280;18221;38.704;0.152;2022-10-16T12:50:34;99020.13;;;29.38;26.37
10176;BME280;18221;38.704;0.152;2022-10-16T12:53:18;99022.28;;;29.31;26.35
10176;BME280;18221;38.704;0.152;2022-10-16T12:56:01;99011.44;;;29.47;26.58
10176;BME280;18221;38.704;0.152;2022-10-16T12:59:01;99013.69;;;29.55;24.38
10176;BME280;18221;38.704;0.152;2022-10-16T13:02:00;99008.53;;;29.58;24.76
10176;BME280;18221;38.704;0.152;2022-10-16T13:04:55;99014.31;;;29.62;25.26
10176;BME280;18221;38.704;0.152;2022-10-16T13:07:46;99014.81;;;29.54;29.27
10176;BME280;18221;38.704;0.152;2022-10-16T13:10:25;99012.16;;;29.64;30.92
10176;BME280;18221;38.704;0.152;2022-10-16T13:13:28;99012.66;;;29.61;26.88
10176;BME280;18221;38.704;0.152;2022-10-16T13:16:12;99013.84;;;29.75;28.87
10176;BME280;18221;38.704;0.152;2022-10-16T13:18:57;99009.56;;;29.84;29.56
10176;BME280;18221;38.704;0.152;2022-10-16T13:21:45;99006.31;;;29.87;27.55
10176;BME280;18221;38.704;0.152;2022-10-16T13:24:42;99008.56;;;29.95;26.65
10176;BME280;18221;38.704;0.152;2022-10-16T13:27:26;99009.91;;;29.92;27.13
10176;BME280;18221;38.704;0.152;2022-10-16T13:30:11;99003.72;;;29.75;26.90
10176;BME280;18221;38.704;0.152;2022-10-16T13:32:40;99006.31;;;29.87;27.47
10176;BME280;18221;38.704;0.152;2022-10-16T13:35:22;99004.97;;;29.89;27.31
10176;BME280;18221;38.704;0.152;2022-10-16T13:37:50;99002.47;;;29.88;28.11
10176;BME280;18221;38.704;0.152;2022-10-16T13:40:22;99000.28;;;29.85;27.29
10176;BME280;18221;38.704;0.152;2022-10-16T13:42:52;98989.78;;;29.77;26.59
10176;BME280;18221;38.704;0.152;2022-10-16T13:45:23;98997.16;;;29.71;26.24
10176;BME280;18221;38.704;0.152;2022-10-16T13:48:03;98990.28;;;29.69;24.61
10176;BME280;18221;38.704;0.152;2022-10-16T13:50:32;98990.94;;;29.81;24.22